Time;durP1;ratioP1;P1;durP2;ratioP2;P2;SDS_P1;SDS_P2;PMS_P1;PMS_P2;Temp;Humidity;BMP_temperature;BMP_pressure;BME280_temperature;BME280_humidity;BME280_pressure;Samples;Min_cycle;Max_cycle;Signal;HPM_P1;HPM_P2
2021/01/09 00:02:17;;;;;;;8.65;5.97;;;;;;;17.00;48.36;102253.16;6238648;22;19995;-76
2021/01/09 00:04:42;;;;;;;9.00;5.82;;;;;;;17.00;48.52;102245.34;6230976;23;20454;-76
2021/01/09 00:07:08;;;;;;;9.55;5.63;;;;;;;16.98;48.61;102248.78;6205659;23;20008;-77
2021/01/09 00:09:34;;;;;;;9.15;6.03;;;;;;;16.98;48.34;102241.00;6253815;23;20038;-76
2021/01/09 00:11:59;;;;;;;9.52;5.75;;;;;;;16.99;48.45;102248.81;6253643;23;20008;-77
2021/01/09 00:16:56;;;;;;;8.80;5.90;;;;;;;16.96;48.06;102242.69;6304441;22;20023;-76
2021/01/09 00:19:21;;;;;;;8.75;5.25;;;;;;;16.96;48.29;102247.88;6210665;22;19996;-76
2021/01/09 00:21:47;;;;;;;8.52;5.47;;;;;;;16.96;48.47;102253.09;6252608;22;20012;-76
2021/01/09 00:24:12;;;;;;;7.97;5.38;;;;;;;16.96;48.43;102256.59;6226541;22;19994;-77
2021/01/09 00:26:38;;;;;;;8.68;5.55;;;;;;;16.96;48.21;102251.38;6277848;22;19995;-79
2021/01/09 00:29:04;;;;;;;8.27;5.18;;;;;;;16.97;48.29;102262.66;6252271;22;20003;-78
2021/01/09 00:31:32;;;;;;;8.93;5.30;;;;;;;16.95;48.16;102254.81;6277643;22;20019;-78
2021/01/09 00:33:57;;;;;;;9.27;5.32;;;;;;;16.96;48.07;102261.78;6251153;22;20133;-77
2021/01/09 00:36:23;;;;;;;8.13;5.28;;;;;;;16.95;48.27;102262.63;6277278;22;20004;-78
2021/01/09 00:38:48;;;;;;;6.30;4.72;;;;;;;16.95;48.11;102265.22;6276775;22;19991;-77
2021/01/09 00:41:14;;;;;;;8.13;5.00;;;;;;;16.94;48.09;102260.88;6296319;22;20007;-76
2021/01/09 00:46:17;;;;;;;10.10;5.15;;;;;;;16.93;48.28;102259.13;6328346;22;20016;-76
2021/01/09 00:48:43;;;;;;;6.90;4.50;;;;;;;16.93;48.16;102263.47;6274221;22;20022;-77
2021/01/09 00:51:15;;;;;;;8.05;4.70;;;;;;;16.93;48.11;102268.66;6275205;22;20426;-78
2021/01/09 00:53:41;;;;;;;8.45;4.90;;;;;;;16.92;47.92;102265.19;6276596;22;20341;-76
2021/01/09 00:56:07;;;;;;;7.43;4.85;;;;;;;16.92;47.95;102269.50;6296872;22;20003;-76
2021/01/09 00:58:33;;;;;;;7.95;4.82;;;;;;;16.90;48.21;102266.88;6240648;22;20020;-76
2021/01/09 01:00:59;;;;;;;6.18;4.40;;;;;;;16.89;47.76;102262.53;6226643;22;20016;-77
2021/01/09 01:03:26;;;;;;;6.55;4.43;;;;;;;16.90;48.00;102269.50;6283650;22;20422;-77
2021/01/09 01:05:51;;;;;;;6.30;4.53;;;;;;;16.90;47.82;102277.28;6235673;22;20045;-78
2021/01/09 01:08:16;;;;;;;6.03;4.40;;;;;;;16.90;47.74;102273.78;6261968;22;19987;-79
2021/01/09 01:10:42;;;;;;;6.05;4.18;;;;;;;16.89;47.96;102283.31;6261691;22;20032;-76
2021/01/09 01:13:07;;;;;;;7.65;4.10;;;;;;;16.89;48.06;102283.31;6262310;22;20033;-76
2021/01/09 01:15:34;;;;;;;5.97;4.35;;;;;;;16.89;47.70;102290.25;6233575;22;20072;-77
2021/01/09 01:18:00;;;;;;;6.45;4.07;;;;;;;16.88;47.88;102286.78;6244991;23;20008;-78
2021/01/09 01:20:27;;;;;;;5.72;4.20;;;;;;;16.88;47.74;102294.59;6242754;22;19988;-79
2021/01/09 01:22:52;;;;;;;6.35;4.30;;;;;;;16.88;47.60;102296.31;6221722;23;19989;-77
2021/01/09 01:25:18;;;;;;;7.57;3.50;;;;;;;16.86;47.69;102293.69;6245605;22;19992;-79
2021/01/09 01:27:43;;;;;;;5.88;3.85;;;;;;;16.85;47.64;102291.91;6248179;22;20046;-77
2021/01/09 01:30:08;;;;;;;6.60;4.13;;;;;;;16.85;47.63;102298.03;6252715;23;20012;-76
2021/01/09 01:32:34;;;;;;;6.25;3.95;;;;;;;16.85;47.84;102305.81;6225037;23;20103;-76
2021/01/09 01:35:00;;;;;;;5.70;3.90;;;;;;;16.86;47.72;102304.09;6224786;23;20011;-76
2021/01/09 01:37:25;;;;;;;5.78;3.47;;;;;;;16.86;47.94;102309.28;6227260;23;20342;-76
2021/01/09 01:39:53;;;;;;;5.75;4.05;;;;;;;16.85;47.61;102311.03;6255166;23;20012;-78
2021/01/09 01:42:19;;;;;;;6.35;3.90;;;;;;;16.85;47.80;102315.31;6232418;23;20019;-77
2021/01/09 01:44:44;;;;;;;6.25;3.88;;;;;;;16.84;47.83;102321.38;6267586;23;20004;-77
2021/01/09 01:47:21;;;;;;;5.25;3.67;;;;;;;16.85;47.47;102328.31;6277170;22;20029;-79
2021/01/09 01:49:47;;;;;;;6.50;3.67;;;;;;;16.83;47.72;102328.31;6275927;22;20006;-79
2021/01/09 01:52:13;;;;;;;5.43;3.50;;;;;;;16.82;47.44;102321.34;6244875;22;20000;-78
2021/01/09 01:54:42;;;;;;;5.20;3.30;;;;;;;16.84;47.59;102326.59;6271644;22;20020;-78
2021/01/09 01:57:09;;;;;;;5.65;3.63;;;;;;;16.82;47.67;102326.53;6237513;22;20007;-78
2021/01/09 01:59:36;;;;;;;5.45;3.08;;;;;;;16.82;47.50;102323.94;6269523;22;20044;-76
2021/01/09 02:02:04;;;;;;;6.43;3.60;;;;;;;16.81;47.61;102327.41;6215759;23;20095;-77
2021/01/09 02:04:30;;;;;;;5.20;3.17;;;;;;;16.81;47.69;102332.59;6220222;23;20028;-76
2021/01/09 02:07:00;;;;;;;4.70;3.22;;;;;;;16.82;47.52;102330.88;6193733;23;20005;-76
2021/01/09 02:09:28;;;;;;;5.57;3.38;;;;;;;16.81;47.41;102330.00;6191742;23;20009;-76
2021/01/09 02:12:04;;;;;;;4.82;3.00;;;;;;;16.80;47.31;102328.25;6195577;23;20004;-76
2021/01/09 02:14:38;;;;;;;4.03;3.05;;;;;;;16.79;47.57;102323.88;6197179;23;20005;-76
2021/01/09 02:17:06;;;;;;;4.57;3.22;;;;;;;16.78;47.54;102327.31;6196723;23;20015;-76
2021/01/09 02:19:38;;;;;;;5.10;3.50;;;;;;;16.81;47.25;102334.31;6216417;23;20332;-77
2021/01/09 02:22:05;;;;;;;4.90;3.38;;;;;;;16.78;47.32;102337.69;6221292;23;20009;-76
2021/01/09 02:24:31;;;;;;;4.68;3.05;;;;;;;16.79;47.45;102330.81;6217919;23;20047;-76
2021/01/09 02:26:56;;;;;;;5.15;3.17;;;;;;;16.79;47.40;102333.41;6220781;23;20019;-76
2021/01/09 02:29:23;;;;;;;4.15;3.05;;;;;;;16.78;47.40;102342.91;6195553;23;20008;-76
2021/01/09 02:32:04;;;;;;;6.70;3.15;;;;;;;16.78;47.44;102336.84;6198032;23;20001;-76
2021/01/09 02:34:41;;;;;;;4.75;3.00;;;;;;;16.78;47.24;102336.84;6197694;23;20001;-76
2021/01/09 02:37:09;;;;;;;4.35;3.00;;;;;;;16.77;47.41;102343.78;6223944;23;19996;-76
2021/01/09 02:39:35;;;;;;;4.05;2.92;;;;;;;16.77;47.70;102337.69;6197955;23;20016;-76
2021/01/09 02:42:02;;;;;;;4.50;3.15;;;;;;;16.76;47.25;102343.72;6239445;23;20035;-76
2021/01/09 02:44:28;;;;;;;4.10;2.92;;;;;;;16.78;47.61;102347.25;6216021;23;19992;-77
2021/01/09 02:46:53;;;;;;;4.55;2.95;;;;;;;16.78;47.34;102345.50;6242364;23;20015;-77
2021/01/09 02:49:18;;;;;;;3.90;2.80;;;;;;;16.78;47.43;102348.09;6236725;23;20004;-76
2021/01/09 02:51:44;;;;;;;4.75;3.10;;;;;;;16.78;47.62;102344.63;6213733;23;19992;-78
2021/01/09 02:54:09;;;;;;;3.97;2.75;;;;;;;16.78;47.54;102344.63;6216384;23;20040;-79
2021/01/09 02:56:34;;;;;;;3.90;2.80;;;;;;;16.78;47.38;102339.44;6218267;23;19997;-78
2021/01/09 02:59:00;;;;;;;4.78;2.88;;;;;;;16.79;47.26;102351.59;6217047;23;20009;-78
2021/01/09 03:01:27;;;;;;;3.97;2.70;;;;;;;16.79;47.29;102343.81;6243399;22;20059;-78
2021/01/09 03:03:52;;;;;;;3.60;2.70;;;;;;;16.78;47.51;102353.31;6242802;23;20004;-79
2021/01/09 03:06:17;;;;;;;4.22;2.63;;;;;;;16.79;47.34;102349.00;6241407;23;20048;-77
2021/01/09 03:08:43;;;;;;;5.05;2.58;;;;;;;16.79;47.34;102351.59;6225847;22;20412;-76
2021/01/09 03:11:08;;;;;;;3.90;2.28;;;;;;;16.79;47.45;102352.47;6218241;23;20321;-76
2021/01/09 03:13:33;;;;;;;3.55;2.47;;;;;;;16.79;47.18;102342.06;6227594;23;19996;-76
2021/01/09 03:15:59;;;;;;;3.13;2.17;;;;;;;16.79;47.15;102349.88;6216553;23;20076;-77
2021/01/09 03:18:25;;;;;;;3.75;2.70;;;;;;;16.79;47.46;102344.66;6215066;23;20004;-77
2021/01/09 03:20:50;;;;;;;3.15;2.30;;;;;;;16.78;47.42;102342.91;6191267;23;20016;-75
2021/01/09 03:23:15;;;;;;;4.13;2.42;;;;;;;16.79;47.40;102349.00;6190718;23;20009;-79
2021/01/09 03:25:41;;;;;;;3.35;2.40;;;;;;;16.78;47.20;102345.50;6243331;22;20020;-77
2021/01/09 03:28:06;;;;;;;3.45;2.25;;;;;;;16.79;47.42;102349.88;6243345;22;20015;-79
2021/01/09 03:30:31;;;;;;;3.45;2.38;;;;;;;16.80;47.30;102345.56;6217060;23;20012;-78
2021/01/09 03:32:57;;;;;;;2.88;1.98;;;;;;;16.80;47.21;102350.78;6216866;22;20028;-79
2021/01/09 03:35:22;;;;;;;3.53;2.50;;;;;;;16.79;47.30;102349.88;6218564;23;20028;-77
2021/01/09 03:37:48;;;;;;;3.13;2.33;;;;;;;16.81;47.05;102352.50;6243738;22;19992;-78
2021/01/09 03:40:13;;;;;;;3.30;2.22;;;;;;;16.79;47.34;102344.66;6217066;22;20040;-79
2021/01/09 03:42:38;;;;;;;3.80;2.28;;;;;;;16.80;47.22;102351.66;6193625;23;19988;-78
2021/01/09 03:45:04;;;;;;;2.30;1.92;;;;;;;16.80;47.26;102351.66;6217095;22;19995;-78
2021/01/09 03:47:30;;;;;;;3.35;2.20;;;;;;;16.80;47.37;102358.56;6243466;22;20052;-79
2021/01/09 03:49:55;;;;;;;2.70;1.70;;;;;;;16.80;47.46;102355.97;6243436;22;20019;-78
2021/01/09 03:52:20;;;;;;;3.05;2.03;;;;;;;16.80;47.29;102355.97;6218322;23;19997;-78
2021/01/09 03:54:46;;;;;;;3.08;2.00;;;;;;;16.79;47.42;102354.19;6165500;23;20013;-77
2021/01/09 03:57:11;;;;;;;2.70;2.10;;;;;;;16.79;47.43;102352.47;6190644;23;20001;-77
2021/01/09 03:59:36;;;;;;;2.50;1.80;;;;;;;16.80;47.62;102355.97;6188671;23;20009;-78
2021/01/09 04:02:02;;;;;;;2.75;2.10;;;;;;;16.80;47.48;102356.84;6190699;23;20012;-78
2021/01/09 04:04:27;;;;;;;2.53;1.85;;;;;;;16.79;47.38;102354.19;6189271;23;20035;-77
2021/01/09 04:06:52;;;;;;;2.80;1.80;;;;;;;16.80;47.33;102361.16;6217231;23;20336;-77
2021/01/09 04:09:18;;;;;;;2.75;1.90;;;;;;;16.80;47.27;102358.56;6216234;23;20336;-78
2021/01/09 04:11:43;;;;;;;2.70;2.00;;;;;;;16.80;47.29;102358.56;6215311;23;20004;-78
2021/01/09 04:14:08;;;;;;;2.40;1.80;;;;;;;16.80;47.39;102355.97;6165846;23;20015;-77
2021/01/09 04:16:35;;;;;;;2.78;2.00;;;;;;;16.79;47.29;102360.28;6216599;23;20013;-77
2021/01/09 04:19:01;;;;;;;2.53;1.70;;;;;;;16.80;47.44;102358.56;6216258;23;20012;-78
2021/01/09 04:21:26;;;;;;;3.20;1.90;;;;;;;16.78;47.03;102361.09;6191322;23;20012;-78
2021/01/09 04:23:51;;;;;;;2.40;1.75;;;;;;;16.79;47.40;102364.59;6217143;23;20016;-78
2021/01/09 04:26:17;;;;;;;2.10;1.65;;;;;;;16.78;47.38;102360.22;6218125;23;20013;-78
2021/01/09 04:28:42;;;;;;;4.28;1.90;;;;;;;16.77;47.49;102358.50;6217863;23;20024;-78
2021/01/09 04:31:08;;;;;;;2.42;1.88;;;;;;;16.75;47.35;102361.06;6217730;23;20012;-78
2021/01/09 04:33:33;;;;;;;2.50;1.75;;;;;;;16.76;47.25;102361.94;6219984;23;20013;-79
2021/01/09 04:35:58;;;;;;;2.92;1.88;;;;;;;16.74;47.47;102361.88;6218209;23;20008;-78
2021/01/09 04:38:24;;;;;;;2.80;1.73;;;;;;;16.75;47.35;102360.19;6188814;23;20420;-78
2021/01/09 04:40:51;;;;;;;2.50;1.80;;;;;;;16.75;47.35;102365.38;6215253;23;20038;-77
2021/01/09 04:43:18;;;;;;;2.40;1.70;;;;;;;16.73;47.32;102364.50;6187175;23;20012;-77
2021/01/09 04:45:47;;;;;;;2.78;1.73;;;;;;;16.72;47.17;102371.38;6213680;23;20388;-78
2021/01/09 04:48:13;;;;;;;3.05;1.60;;;;;;;16.73;47.27;102367.09;6188108;23;20005;-78
2021/01/09 04:50:40;;;;;;;2.28;1.60;;;;;;;16.73;47.23;102374.88;6186928;23;20042;-78
2021/01/09 04:53:07;;;;;;;3.25;1.77;;;;;;;16.72;47.32;102375.72;6214397;23;20455;-77
2021/01/09 04:55:34;;;;;;;2.63;1.50;;;;;;;16.71;46.88;102377.44;6214794;23;20032;-78
2021/01/09 04:58:01;;;;;;;2.97;1.77;;;;;;;16.71;47.16;102376.56;6214911;23;20008;-77
2021/01/09 05:00:27;;;;;;;2.13;1.40;;;;;;;16.71;47.40;102386.97;6187280;23;20009;-78
2021/01/09 05:02:53;;;;;;;2.65;1.60;;;;;;;16.70;47.20;102375.72;6186855;23;20032;-78
2021/01/09 05:05:19;;;;;;;2.35;1.60;;;;;;;16.69;47.10;102375.66;6215004;23;20066;-78
2021/01/09 05:07:44;;;;;;;2.95;1.60;;;;;;;16.69;47.18;102384.34;6213501;23;20005;-78
2021/01/09 05:10:11;;;;;;;2.85;1.63;;;;;;;16.69;47.33;102386.06;6187470;23;20005;-78
2021/01/09 05:12:39;;;;;;;2.95;1.58;;;;;;;16.69;47.45;102388.66;6214582;23;20013;-77
2021/01/09 05:15:07;;;;;;;2.92;1.50;;;;;;;16.69;47.20;102393.88;6187316;23;20008;-77
2021/01/09 05:17:34;;;;;;;2.42;1.50;;;;;;;16.67;46.96;102386.91;6213069;23;20008;-78
2021/01/09 05:20:03;;;;;;;1.70;1.35;;;;;;;16.67;47.22;102386.03;6187721;23;20001;-78
2021/01/09 05:22:29;;;;;;;2.55;1.55;;;;;;;16.66;47.28;102389.50;6188739;23;20048;-77
2021/01/09 05:24:55;;;;;;;1.75;1.20;;;;;;;16.66;47.05;102395.56;6187196;23;20005;-77
2021/01/09 05:27:20;;;;;;;1.73;1.20;;;;;;;16.66;47.17;102397.28;6188406;23;20032;-76
2021/01/09 05:29:53;;;;;;;3.47;1.67;;;;;;;16.64;47.25;102394.66;6190448;23;20424;-77
2021/01/09 05:32:20;;;;;;;2.17;1.52;;;;;;;16.64;47.26;102394.66;6189585;23;20019;-76
2021/01/09 05:34:50;;;;;;;2.05;1.38;;;;;;;16.64;47.01;102398.97;6214214;23;20083;-76
2021/01/09 05:37:19;;;;;;;2.15;1.38;;;;;;;16.64;47.17;102399.84;6185923;23;20009;-76
2021/01/09 05:39:53;;;;;;;2.20;1.35;;;;;;;16.62;47.14;102401.53;6189044;23;20335;-77
2021/01/09 05:42:24;;;;;;;2.40;1.75;;;;;;;16.63;47.07;102405.88;6216139;23;20070;-76
2021/01/09 05:44:50;;;;;;;2.20;1.48;;;;;;;16.63;47.11;102410.22;6214462;23;20032;-77
2021/01/09 05:47:17;;;;;;;1.80;1.27;;;;;;;16.62;47.05;102417.13;6188268;23;20040;-77
2021/01/09 05:49:44;;;;;;;2.83;1.67;;;;;;;16.62;47.16;102411.06;6214191;23;20005;-78
2021/01/09 05:52:11;;;;;;;2.13;1.20;;;;;;;16.62;47.12;102418.88;6188029;23;20012;-77
2021/01/09 05:54:37;;;;;;;1.75;1.20;;;;;;;16.61;47.14;102419.69;6214167;23;20012;-78
2021/01/09 05:57:04;;;;;;;2.45;1.38;;;;;;;16.60;46.87;102413.63;6163683;23;20391;-77
2021/01/09 05:59:33;;;;;;;2.05;1.40;;;;;;;16.60;47.32;102418.81;6186452;23;19997;-77
2021/01/09 06:01:59;;;;;;;2.13;1.30;;;;;;;16.61;47.21;102424.88;6187382;23;20005;-77
2021/01/09 06:04:28;;;;;;;1.80;1.08;;;;;;;16.61;47.12;102428.41;6213334;23;20012;-77
2021/01/09 06:07:08;;;;;;;2.35;1.30;;;;;;;16.62;46.94;102424.06;6215986;23;20012;-78
2021/01/09 06:09:35;;;;;;;2.45;1.40;;;;;;;16.63;47.13;102428.41;6189047;23;20008;-78
2021/01/09 06:12:07;;;;;;;2.45;1.15;;;;;;;16.62;47.14;102430.13;6215568;23;20416;-78
2021/01/09 06:14:35;;;;;;;1.67;1.08;;;;;;;16.62;46.97;102424.94;6215779;23;20016;-78
2021/01/09 06:17:02;;;;;;;2.10;1.33;;;;;;;16.62;46.97;102422.34;6216342;23;20051;-78
2021/01/09 06:19:29;;;;;;;1.90;1.30;;;;;;;16.64;47.19;102428.44;6214960;23;19991;-76
2021/01/09 06:21:55;;;;;;;1.63;1.17;;;;;;;16.64;47.10;102427.56;6193565;23;20055;-77
2021/01/09 06:24:22;;;;;;;7.07;2.53;;;;;;;16.78;47.39;102426.09;6219878;23;20360;-77
2021/01/09 06:26:48;;;;;;;19.63;6.53;;;;;;;16.91;47.35;102427.25;6222723;23;20013;-77
2021/01/09 06:29:24;;;;;;;20.73;6.22;;;;;;;16.99;47.28;102422.19;6195046;23;20005;-76
2021/01/09 06:31:53;;;;;;;14.80;5.57;;;;;;;17.05;47.01;102430.13;6230152;23;20012;-77
2021/01/09 06:34:22;;;;;;;12.30;4.90;;;;;;;17.11;46.79;102429.31;6230068;23;20012;-77
2021/01/09 06:36:53;;;;;;;12.45;4.47;;;;;;;17.11;46.61;102432.81;6238261;23;20045;-78
2021/01/09 06:39:18;;;;;;;14.88;4.40;;;;;;;17.13;46.98;102432.84;6244417;22;20005;-77
2021/01/09 06:41:44;;;;;;;13.80;4.43;;;;;;;17.12;47.13;102426.75;6218087;23;20068;-76
2021/01/09 06:44:13;;;;;;;11.00;3.78;;;;;;;17.11;47.21;102432.81;6217961;23;20008;-77
2021/01/09 06:49:21;;;;;;;9.40;3.72;;;;;;;17.10;47.33;102428.47;6272663;22;20012;-76
2021/01/09 06:52:03;;;;;;;7.00;3.20;;;;;;;17.13;47.44;102425.03;6282187;22;20014;-76
2021/01/09 06:54:44;;;;;;;10.90;3.55;;;;;;;17.12;47.52;102428.50;6291769;22;19988;-77
2021/01/09 06:57:10;;;;;;;8.65;3.67;;;;;;;17.13;47.34;102432.84;6277742;22;20011;-76
2021/01/09 06:59:35;;;;;;;9.23;3.72;;;;;;;17.13;47.24;102433.69;6279926;22;20027;-77
2021/01/09 07:02:26;;;;;;;10.05;3.53;;;;;;;17.13;47.26;102438.03;6280292;22;19996;-78
2021/01/09 07:05:00;;;;;;;10.88;3.35;;;;;;;17.12;47.52;102433.69;6280151;22;20007;-78
2021/01/09 07:07:56;;;;;;;8.25;3.40;;;;;;;17.10;47.40;102440.59;6306575;22;20010;-78
2021/01/09 07:10:24;;;;;;;7.88;2.75;;;;;;;17.09;47.47;102438.81;6280087;22;19998;-79
2021/01/09 07:12:53;;;;;;;5.20;3.00;;;;;;;17.07;47.56;102441.38;6306043;22;20100;-78
2021/01/09 07:15:19;;;;;;;8.57;2.65;;;;;;;17.05;47.64;102446.59;6278158;22;20000;-80
2021/01/09 07:17:50;;;;;;;6.75;2.92;;;;;;;17.04;47.80;102449.16;6304915;22;20067;-79
2021/01/09 07:20:20;;;;;;;7.55;3.03;;;;;;;17.05;47.78;102456.13;6302886;22;20023;-76
2021/01/09 07:22:48;;;;;;;9.02;2.78;;;;;;;17.03;47.54;102452.63;6303496;22;19999;-79
2021/01/09 07:25:22;;;;;;;6.68;2.78;;;;;;;17.03;47.92;102455.22;6303924;22;20003;-76
2021/01/09 07:28:12;;;;;;;12.13;3.10;;;;;;;17.06;48.21;102463.94;6304110;22;20027;-76
2021/01/09 07:30:38;;;;;;;4.43;2.35;;;;;;;17.06;47.92;102463.94;6277198;22;20019;-76
2021/01/09 07:33:12;;;;;;;7.53;2.72;;;;;;;16.80;46.87;102468.63;6252474;22;20014;-76
2021/01/09 07:35:42;;;;;;;7.78;3.10;;;;;;;16.53;46.35;102474.13;6276913;22;19984;-76
2021/01/09 07:38:10;;;;;;;10.70;3.03;;;;;;;16.37;45.31;102472.03;6302555;22;19992;-76
2021/01/09 07:40:44;;;;;;;5.40;3.15;;;;;;;16.24;45.54;102477.00;6276954;22;19991;-76
2021/01/09 07:43:36;;;;;;;5.90;3.03;;;;;;;16.33;45.23;102481.50;6304270;22;20011;-78
2021/01/09 07:46:20;;;;;;;6.63;2.88;;;;;;;16.53;45.95;102481.06;6275943;22;20045;-76
2021/01/09 07:48:47;;;;;;;7.82;2.95;;;;;;;16.63;45.97;102470.84;6291619;22;20019;-76
2021/01/09 07:53:46;;;;;;;;;;;;;;;16.79;46.03;102479.00;6246262;23;20020;-75
2021/01/09 07:56:35;;;;;;;5.57;2.70;;;;;;;16.84;46.09;102485.19;6226597;22;19923;-75
2021/01/09 07:59:00;;;;;;;5.30;2.72;;;;;;;16.86;46.05;102483.50;6224417;23;20004;-75
2021/01/09 08:01:26;;;;;;;7.82;2.45;;;;;;;16.89;46.15;102483.53;6249815;22;20433;-75
2021/01/09 08:03:52;;;;;;;10.93;2.55;;;;;;;16.94;45.97;102491.44;6255714;22;20020;-75
2021/01/09 08:06:17;;;;;;;4.80;2.38;;;;;;;16.94;46.08;102492.31;6256090;22;20039;-75
2021/01/09 08:08:43;;;;;;;5.35;2.15;;;;;;;16.96;46.00;102493.25;6231124;22;20011;-75
2021/01/09 08:11:08;;;;;;;4.95;2.20;;;;;;;16.98;46.16;102490.66;6208254;22;20011;-75
2021/01/09 08:13:33;;;;;;;4.53;2.28;;;;;;;17.00;46.14;102494.16;6232402;22;20004;-75
2021/01/09 08:15:59;;;;;;;4.80;2.20;;;;;;;17.00;45.97;102502.81;6259970;22;20008;-76
2021/01/09 08:18:24;;;;;;;6.30;2.70;;;;;;;17.00;46.21;102502.81;6259610;22;20008;-76
2021/01/09 08:20:50;;;;;;;4.10;2.22;;;;;;;17.03;46.05;102502.03;6259091;22;20016;-77
2021/01/09 08:23:15;;;;;;;3.80;2.10;;;;;;;17.04;45.88;102501.16;6270716;22;20409;-78
2021/01/09 08:25:43;;;;;;;3.88;1.80;;;;;;;17.06;45.89;102507.28;6248874;22;20443;-76
2021/01/09 08:28:09;;;;;;;4.00;2.17;;;;;;;17.05;46.06;102503.81;6269993;22;20014;-78
2021/01/09 08:30:36;;;;;;;4.95;2.10;;;;;;;17.04;46.13;102507.25;6246860;22;20015;-75
2021/01/09 08:33:16;;;;;;;6.07;2.10;;;;;;;17.08;45.88;102512.53;6262929;22;20098;-76
2021/01/09 08:35:52;;;;;;;3.13;1.75;;;;;;;17.09;45.89;102506.47;6273505;22;20000;-76
2021/01/09 08:38:18;;;;;;;3.60;1.95;;;;;;;17.11;45.80;102513.44;6273684;22;20003;-76
2021/01/09 08:40:43;;;;;;;4.88;1.85;;;;;;;17.11;46.00;102521.25;6288249;22;20038;-78
2021/01/09 08:43:11;;;;;;;3.58;1.77;;;;;;;17.14;46.12;102515.25;6267289;22;20004;-76
2021/01/09 08:45:41;;;;;;;6.30;1.60;;;;;;;17.16;45.98;102522.22;6283639;22;19995;-75
2021/01/09 08:48:18;;;;;;;3.63;1.52;;;;;;;17.21;45.74;102527.50;6254826;22;20000;-76
2021/01/09 08:50:57;;;;;;;4.57;1.70;;;;;;;17.26;45.41;102533.66;6280144;22;20000;-76
2021/01/09 08:53:23;;;;;;;2.80;1.70;;;;;;;17.29;45.65;102533.75;6253271;22;20000;-76
2021/01/09 08:55:51;;;;;;;3.00;1.58;;;;;;;17.33;45.39;102534.66;6280403;22;20011;-76
2021/01/09 08:58:17;;;;;;;2.17;1.35;;;;;;;17.36;45.69;102534.72;6226915;22;20008;-76
2021/01/09 09:00:43;;;;;;;3.42;1.75;;;;;;;17.36;45.46;102545.13;6254870;22;20029;-76
2021/01/09 09:03:12;;;;;;;3.38;1.75;;;;;;;17.35;45.46;102546.84;6240821;22;20042;-77
2021/01/09 09:05:42;;;;;;;3.15;1.70;;;;;;;17.34;45.63;102550.31;6299553;22;20047;-76
2021/01/09 09:08:10;;;;;;;3.75;1.90;;;;;;;17.34;45.98;102558.13;6248209;22;20004;-77
2021/01/09 09:10:36;;;;;;;5.72;1.80;;;;;;;17.33;45.73;102548.53;6299121;22;20008;-76
2021/01/09 09:13:19;;;;;;;3.00;1.50;;;;;;;17.33;45.66;102553.75;6266482;22;20004;-77
2021/01/09 09:15:45;;;;;;;3.03;1.60;;;;;;;17.32;45.63;102552.00;6243421;23;20024;-76
2021/01/09 09:18:11;;;;;;;2.10;1.23;;;;;;;17.33;45.58;102552.88;6269840;22;20067;-76
2021/01/09 09:20:36;;;;;;;3.83;1.42;;;;;;;17.31;45.73;102555.47;6266244;23;19996;-77
2021/01/09 09:23:18;;;;;;;2.67;1.40;;;;;;;17.30;45.90;102555.44;6240524;23;20014;-76
2021/01/09 09:25:44;;;;;;;2.97;1.60;;;;;;;17.27;45.92;102566.66;6270050;22;19984;-80
2021/01/09 09:28:09;;;;;;;2.53;1.58;;;;;;;17.23;45.78;102560.50;6267116;22;20037;-78
2021/01/09 09:30:35;;;;;;;2.75;1.50;;;;;;;17.20;45.86;102559.56;6269125;23;20005;-77
2021/01/09 09:33:11;;;;;;;2.78;1.33;;;;;;;17.19;46.04;102558.69;6267492;23;20004;-77
2021/01/09 09:38:12;;;;;;;3.35;1.52;;;;;;;17.17;46.08;102562.97;6296579;22;20015;-77
2021/01/09 09:40:39;;;;;;;3.03;1.58;;;;;;;17.17;46.22;102564.72;6273567;22;20010;-76
2021/01/09 09:43:18;;;;;;;3.55;1.45;;;;;;;17.19;45.96;102570.84;6249492;22;20044;-79
2021/01/09 09:46:01;;;;;;;2.97;1.50;;;;;;;17.20;45.95;102569.97;6272920;22;20027;-77
2021/01/09 09:48:34;;;;;;;3.40;1.70;;;;;;;17.22;45.80;102581.28;6248918;22;20103;-77
2021/01/09 09:51:10;;;;;;;2.30;1.52;;;;;;;17.22;45.94;102576.06;6273736;22;20018;-77
2021/01/09 09:53:38;;;;;;;2.20;1.45;;;;;;;17.22;45.90;102576.06;6299823;22;20010;-78
2021/01/09 09:56:14;;;;;;;3.35;1.52;;;;;;;17.26;45.79;102580.50;6249007;22;20014;-80
2021/01/09 09:58:40;;;;;;;2.95;1.50;;;;;;;17.22;45.97;102576.06;6272714;22;20019;-77
2021/01/09 10:01:14;;;;;;;2.33;1.40;;;;;;;17.20;45.87;102573.47;6273885;22;20015;-77
2021/01/09 10:03:40;;;;;;;2.08;1.40;;;;;;;17.18;45.93;102579.47;6274161;22;20003;-79
2021/01/09 10:06:05;;;;;;;2.80;1.25;;;;;;;17.17;45.90;102573.41;6247112;22;20004;-79
2021/01/09 10:08:30;;;;;;;2.63;1.30;;;;;;;17.16;45.90;102573.34;6213356;22;20398;-76
2021/01/09 10:10:56;;;;;;;2.40;1.25;;;;;;;17.15;45.88;102571.63;6256604;22;20011;-77
2021/01/09 10:13:26;;;;;;;1.65;1.02;;;;;;;17.15;46.06;102569.88;6285009;22;20008;-76
2021/01/09 10:15:51;;;;;;;3.13;1.15;;;;;;;17.14;45.94;102568.13;6208839;22;20012;-77
2021/01/09 10:18:16;;;;;;;1.58;1.02;;;;;;;17.14;45.96;102559.47;6235694;22;20007;-77
2021/01/09 10:20:42;;;;;;;2.42;1.25;;;;;;;17.14;45.92;102556.88;6260767;22;20477;-78
2021/01/09 10:23:07;;;;;;;1.98;1.20;;;;;;;17.13;45.79;102555.97;6260974;22;20308;-77
2021/01/09 10:25:33;;;;;;;2.00;1.30;;;;;;;17.16;46.02;102562.94;6260284;22;20011;-77
2021/01/09 10:27:58;;;;;;;2.13;1.40;;;;;;;17.15;46.00;102556.88;6237375;22;20343;-76
2021/01/09 10:30:24;;;;;;;2.50;1.30;;;;;;;17.17;45.92;102559.50;6259529;22;20065;-76
2021/01/09 10:32:49;;;;;;;2.28;1.10;;;;;;;17.17;45.86;102562.97;6281708;22;20008;-77
2021/01/09 10:35:15;;;;;;;2.65;1.17;;;;;;;17.18;45.97;102566.47;6231528;22;20030;-77
2021/01/09 10:37:40;;;;;;;2.35;1.20;;;;;;;17.19;46.00;102565.63;6298915;22;20048;-80
2021/01/09 10:40:06;;;;;;;2.35;1.20;;;;;;;17.20;46.06;102560.47;6215484;22;20011;-78
2021/01/09 10:42:31;;;;;;;2.40;1.30;;;;;;;17.20;45.88;102564.75;6261840;22;20098;-77
2021/01/09 10:44:57;;;;;;;1.75;1.02;;;;;;;17.19;45.95;102563.03;6238143;22;20007;-78
2021/01/09 10:47:22;;;;;;;2.58;1.15;;;;;;;17.18;45.86;102571.66;6292510;22;20003;-78
2021/01/09 10:49:47;;;;;;;2.17;0.90;;;;;;;17.17;45.76;102562.13;6268554;22;20453;-77
2021/01/09 10:52:13;;;;;;;2.28;1.27;;;;;;;17.16;45.87;102561.25;6296383;22;20007;-81
2021/01/09 10:54:38;;;;;;;2.30;1.05;;;;;;;17.14;46.02;102557.72;6267745;22;20008;-78
2021/01/09 10:57:04;;;;;;;1.23;0.80;;;;;;;17.14;46.01;102551.66;6269864;22;20011;-77
2021/01/09 10:59:29;;;;;;;1.65;1.00;;;;;;;17.14;45.93;102557.72;6269790;22;20071;-77
2021/01/09 11:01:58;;;;;;;2.65;1.10;;;;;;;17.14;45.83;102552.53;6260811;23;20032;-78
2021/01/09 11:04:24;;;;;;;1.75;1.00;;;;;;;17.15;45.83;102548.19;6235363;23;20023;-81
2021/01/09 11:06:49;;;;;;;1.25;0.82;;;;;;;17.16;45.86;102549.94;6258855;23;20003;-78
2021/01/09 11:09:14;;;;;;;1.70;1.00;;;;;;;17.19;45.93;102550.03;6259080;23;20011;-79
2021/01/09 11:11:46;;;;;;;1.77;1.15;;;;;;;17.19;45.57;102542.22;6265215;23;20031;-80
2021/01/09 11:14:12;;;;;;;2.78;1.15;;;;;;;17.19;45.85;102539.63;6239779;23;20008;-83
2021/01/09 11:16:37;;;;;;;1.88;1.02;;;;;;;17.18;45.62;102533.53;6256050;23;20423;-78
2021/01/09 11:19:02;;;;;;;2.45;1.05;;;;;;;17.19;45.53;102534.41;6251878;23;20065;-77
2021/01/09 11:21:28;;;;;;;2.13;1.00;;;;;;;17.17;45.55;102529.16;6251064;23;20070;-78
2021/01/09 11:23:53;;;;;;;1.50;0.95;;;;;;;17.17;45.53;102526.56;6252375;23;20005;-78
2021/01/09 11:26:26;;;;;;;1.65;0.90;;;;;;;17.20;45.73;102531.84;6252575;23;20008;-79
2021/01/09 11:28:52;;;;;;;1.67;0.85;;;;;;;17.24;45.63;102528.44;6255297;23;20008;-80
2021/01/09 11:31:18;;;;;;;2.17;1.05;;;;;;;17.24;45.80;102533.63;6254211;23;20011;-80
2021/01/09 11:33:43;;;;;;;1.45;0.82;;;;;;;17.25;45.76;102531.94;6228928;23;20019;-78
2021/01/09 11:36:09;;;;;;;1.67;0.85;;;;;;;17.22;45.56;102530.16;6228557;23;20398;-79
2021/01/09 11:38:35;;;;;;;1.77;0.90;;;;;;;17.22;45.76;102531.84;6227489;23;20015;-79
2021/01/09 11:41:01;;;;;;;1.10;0.80;;;;;;;17.18;45.65;102533.53;6230474;23;20015;-79